Archival Weather

Wadi Al Dawasir

Wadi Al Dawasir, Saudi Arabia (OEWD)

Report from: Sunday, October 1, 2023 11:00 AM +03
Current time: Monday, February 26, 2024 12:22 AM +03

Current weather – Weather history – Daily summaries
Weather forecast

Temperature37.0°C (98.6°F)
Heat index34.0°C (93.2°F)
Dew point-5.0°C (23.0°F)
Winds 6 kts (3.1 m/s, 6.9 mph) Southeast (130°)
Clouds Sky clear
Altimeter29.94 in.Hg (1014 mB)
Relative humidity7 %
Density altitude2,537 ft. (773 m)
Remarks Ceiling and visibility OK
Flight conditions Visual Meteorological Conditions
Raw dataOEWD 010800Z 13006KT CAVOK 37/M05 Q1014
An error has occurred. This application may no longer respond until reloaded. Reload 🗙